Time;durP1;ratioP1;P1;durP2;ratioP2;P2;SDS_P1;SDS_P2;PMS_P1;PMS_P2;Temp;Humidity;BMP_temperature;BMP_pressure;BME280_temperature;BME280_humidity;BME280_pressure;Samples;Min_cycle;Max_cycle;Signal;HPM_P1;HPM_P2
2023/08/25 00:00:59;;;;;;;5.00;4.50;;;;;;;28.40;43.97;100402.05;104146;1286;69265;-84
2023/08/25 00:03:25;;;;;;;5.80;5.20;;;;;;;28.40;43.84;100407.63;104158;1292;67531;-84
2023/08/25 00:05:52;;;;;;;5.80;5.00;;;;;;;28.41;43.99;100410.92;104169;1285;69252;-84
2023/08/25 00:08:17;;;;;;;6.60;5.20;;;;;;;28.41;44.00;100411.64;104201;1285;69146;-84
2023/08/25 00:10:43;;;;;;;6.00;5.40;;;;;;;28.40;44.05;100415.55;104121;1289;69210;-85
2023/08/25 00:13:08;;;;;;;6.60;5.10;;;;;;;28.41;44.07;100419.46;104022;1286;69184;-84
2023/08/25 00:15:33;;;;;;;6.20;5.60;;;;;;;28.40;44.02;100419.00;104128;1289;69201;-84
2023/08/25 00:17:59;;;;;;;5.50;4.80;;;;;;;28.40;44.09;100420.83;104068;1290;69189;-84
2023/08/25 00:20:25;;;;;;;5.40;4.80;;;;;;;28.40;44.04;100415.55;104072;1291;69279;-84
2023/08/25 00:22:51;;;;;;;5.70;5.10;;;;;;;28.40;44.19;100416.54;104220;1290;69269;-84
2023/08/25 00:25:20;;;;;;;6.10;5.40;;;;;;;28.40;44.17;100419.54;104071;1289;70358;-90
2023/08/25 00:27:48;;;;;;;6.30;5.40;;;;;;;28.39;44.15;100423.34;104103;1290;69499;-84
2023/08/25 00:30:13;;;;;;;5.60;5.10;;;;;;;28.40;44.29;100426.80;103994;1288;69388;-84
2023/08/25 00:32:39;;;;;;;6.40;5.60;;;;;;;28.39;44.26;100427.02;104112;1285;69663;-85
2023/08/25 00:35:05;;;;;;;5.90;5.30;;;;;;;28.40;44.21;100438.32;104132;1285;69305;-85
2023/08/25 00:37:31;;;;;;;6.20;5.50;;;;;;;28.39;44.34;100442.84;104135;1290;69488;-85
2023/08/25 00:39:56;;;;;;;7.40;5.60;;;;;;;28.40;44.39;100448.68;104120;1291;69141;-84
2023/08/25 00:42:21;;;;;;;7.00;5.60;;;;;;;28.39;44.36;100446.21;104245;1292;67461;-84
2023/08/25 00:44:47;;;;;;;6.00;5.30;;;;;;;28.39;44.40;100450.88;104522;1285;69155;-85
2023/08/25 00:47:12;;;;;;;5.90;5.40;;;;;;;28.39;44.38;100453.46;104144;1287;69532;-84
2023/08/25 00:49:38;;;;;;;6.60;5.80;;;;;;;28.38;44.39;100452.80;104207;1286;69224;-84
2023/08/25 00:54:37;;;;;;;6.10;5.50;;;;;;;28.38;44.48;100447.73;104474;1286;72885;-84
2023/08/25 00:57:03;;;;;;;6.20;5.60;;;;;;;28.39;44.51;100446.06;104458;1283;69221;-84
2023/08/25 00:59:29;;;;;;;6.10;5.50;;;;;;;28.39;44.62;100442.49;104346;1286;69228;-84
2023/08/25 01:01:56;;;;;;;6.00;5.40;;;;;;;28.38;44.72;100440.59;104468;1288;69715;-84
2023/08/25 01:04:21;;;;;;;6.10;5.50;;;;;;;28.38;44.63;100438.98;104441;1286;69176;-85
2023/08/25 01:06:48;;;;;;;6.10;5.40;;;;;;;28.38;44.58;100441.16;104303;1286;70449;-84
2023/08/25 01:09:13;;;;;;;8.10;5.70;;;;;;;28.38;44.59;100441.42;104336;1289;69211;-84
2023/08/25 01:11:51;;;;;;;6.50;5.80;;;;;;;28.38;44.59;100442.11;104591;1288;69274;-84
2023/08/25 01:14:20;;;;;;;6.50;5.70;;;;;;;28.38;44.68;100443.93;105126;1286;69096;-84
2023/08/25 01:16:49;;;;;;;5.80;5.30;;;;;;;28.37;44.83;100446.63;104522;1283;74317;-84
2023/08/25 01:19:39;;;;;;;6.80;5.70;;;;;;;28.37;44.77;100444.49;105935;1287;67022;-86
2023/08/25 01:22:22;;;;;;;6.20;5.40;;;;;;;28.37;44.63;100444.88;104672;1283;69256;-90
2023/08/25 01:24:48;;;;;;;6.50;5.80;;;;;;;28.37;44.56;100444.62;104197;1286;68994;-84
2023/08/25 01:27:13;;;;;;;6.70;5.80;;;;;;;28.38;44.68;100443.66;104177;1289;69186;-84
2023/08/25 01:29:43;;;;;;;6.00;5.40;;;;;;;28.38;44.82;100441.24;104201;1286;69694;-85
2023/08/25 01:32:09;;;;;;;6.80;5.70;;;;;;;28.37;44.65;100440.37;104560;1283;69114;-84
2023/08/25 01:34:34;;;;;;;6.60;5.90;;;;;;;28.37;44.68;100435.51;104431;1283;69282;-84
2023/08/25 01:37:27;;;;;;;7.30;5.60;;;;;;;28.37;44.79;100435.05;104272;1283;69300;-90
2023/08/25 01:39:54;;;;;;;6.30;5.50;;;;;;;28.36;44.90;100433.45;104451;1283;67944;-88
2023/08/25 01:42:20;;;;;;;6.70;6.00;;;;;;;28.36;44.90;100432.69;104288;1289;74752;-84
2023/08/25 01:44:46;;;;;;;7.30;5.70;;;;;;;28.36;44.78;100430.61;104197;1289;69598;-84
2023/08/25 01:47:11;;;;;;;6.30;5.40;;;;;;;28.36;44.76;100431.41;104222;1289;69882;-84
2023/08/25 01:49:37;;;;;;;6.80;6.10;;;;;;;28.36;44.89;100426.02;104328;1292;69237;-85
2023/08/25 01:52:04;;;;;;;6.40;5.80;;;;;;;28.36;44.98;100428.71;104343;1289;69176;-90
2023/08/25 01:54:30;;;;;;;6.80;5.90;;;;;;;28.35;45.04;100429.23;104219;1286;69136;-84
2023/08/25 01:56:55;;;;;;;6.30;5.70;;;;;;;28.35;45.04;100426.20;104219;1286;69195;-84
2023/08/25 01:59:21;;;;;;;6.00;5.40;;;;;;;28.35;45.07;100422.06;104311;1288;69360;-84
2023/08/25 02:01:46;;;;;;;7.30;5.90;;;;;;;28.35;44.92;100422.48;104289;1289;69193;-84
2023/08/25 02:04:12;;;;;;;6.30;5.70;;;;;;;28.34;45.07;100418.88;104115;1290;69268;-84
2023/08/25 02:06:37;;;;;;;7.70;6.00;;;;;;;28.33;44.99;100419.23;104100;1286;69276;-84
2023/08/25 02:09:03;;;;;;;6.30;5.50;;;;;;;28.33;45.12;100423.39;104275;1286;69292;-84
2023/08/25 02:11:28;;;;;;;7.20;5.80;;;;;;;28.33;45.18;100426.39;104238;1291;69337;-84
2023/08/25 02:13:54;;;;;;;7.70;5.50;;;;;;;28.33;45.10;100421.59;104233;1289;69182;-84
2023/08/25 02:16:19;;;;;;;8.00;5.50;;;;;;;28.32;45.01;100423.58;104239;1286;69238;-85
2023/08/25 02:21:21;;;;;;;7.00;5.50;;;;;;;28.32;45.04;100421.83;104580;1286;69166;-85
2023/08/25 02:23:46;;;;;;;6.20;5.40;;;;;;;28.32;45.19;100424.52;104257;1284;69272;-85
2023/08/25 02:26:12;;;;;;;5.90;5.30;;;;;;;28.32;45.19;100426.77;104440;1286;69183;-84
2023/08/25 02:28:37;;;;;;;5.80;5.20;;;;;;;28.31;45.22;100430.70;104433;1286;69244;-84
2023/08/25 02:31:03;;;;;;;5.70;5.10;;;;;;;28.31;45.16;100433.14;104502;1286;69334;-85
2023/08/25 02:33:28;;;;;;;5.80;5.20;;;;;;;28.31;45.30;100437.23;104418;1287;69227;-84
2023/08/25 02:35:54;;;;;;;7.60;5.80;;;;;;;28.31;45.42;100434.95;104482;1284;69781;-84
2023/08/25 02:38:19;;;;;;;6.60;5.90;;;;;;;28.31;45.36;100435.67;104515;1285;69198;-84
2023/08/25 02:40:45;;;;;;;6.60;5.20;;;;;;;28.31;45.37;100439.52;104534;1286;69471;-85
2023/08/25 02:43:11;;;;;;;7.00;5.50;;;;;;;28.31;45.38;100441.74;104487;1287;73627;-85
2023/08/25 02:45:36;;;;;;;7.20;5.20;;;;;;;28.30;45.38;100441.44;104376;1286;69256;-84
2023/08/25 02:48:02;;;;;;;6.40;5.80;;;;;;;28.30;45.41;100442.27;104459;1286;69264;-84
2023/08/25 02:50:28;;;;;;;5.90;5.30;;;;;;;28.30;45.33;100444.25;104268;1283;69279;-84
2023/08/25 02:52:53;;;;;;;6.10;5.50;;;;;;;28.30;45.29;100450.21;104278;1291;69202;-84
2023/08/25 02:55:21;;;;;;;6.80;5.40;;;;;;;28.30;45.37;100446.48;104459;1288;69181;-84
2023/08/25 02:57:51;;;;;;;7.30;5.60;;;;;;;28.30;45.27;100446.91;104223;1288;69196;-90
2023/08/25 03:00:20;;;;;;;6.30;5.70;;;;;;;28.29;45.13;100441.94;104400;1285;69065;-84
2023/08/25 03:02:46;;;;;;;6.20;5.20;;;;;;;28.29;45.36;100443.19;104191;1291;69160;-84
2023/08/25 03:05:12;;;;;;;8.10;6.00;;;;;;;28.28;45.39;100441.97;104508;1286;69129;-84
2023/08/25 03:07:37;;;;;;;8.60;7.00;;;;;;;28.25;45.59;100445.61;104505;1285;69241;-84
2023/08/25 03:10:03;;;;;;;11.70;7.00;;;;;;;28.17;45.84;100447.86;104366;1286;69212;-84
2023/08/25 03:12:28;;;;;;;11.20;7.00;;;;;;;28.09;46.14;100450.46;104428;1287;70490;-84
2023/08/25 03:14:54;;;;;;;11.00;6.80;;;;;;;27.99;46.55;100451.06;104125;1288;73673;-84
2023/08/25 03:17:19;;;;;;;8.60;6.70;;;;;;;27.90;46.88;100451.84;104057;1286;69266;-84
2023/08/25 03:19:45;;;;;;;7.60;6.70;;;;;;;27.85;47.12;100456.23;104161;1288;69215;-85
2023/08/25 03:22:11;;;;;;;9.10;7.10;;;;;;;27.79;47.40;100457.27;104252;1288;69278;-85
2023/08/25 03:24:44;;;;;;;11.60;6.60;;;;;;;27.74;47.68;100461.54;104097;1294;69243;-90
2023/08/25 03:27:10;;;;;;;15.70;7.60;;;;;;;27.70;47.80;100462.35;104341;1288;69135;-85
2023/08/25 03:29:36;;;;;;;12.20;7.00;;;;;;;27.65;47.98;100470.19;104287;1286;69241;-85
2023/08/25 03:32:02;;;;;;;13.40;7.60;;;;;;;27.61;48.07;100476.96;104337;1288;69180;-85
2023/08/25 03:34:29;;;;;;;12.20;6.80;;;;;;;27.56;48.30;100477.51;104155;1286;69347;-85
2023/08/25 03:36:54;;;;;;;10.20;7.00;;;;;;;27.53;48.40;100481.89;104111;1285;69201;-85
2023/08/25 03:39:20;;;;;;;9.80;6.80;;;;;;;27.50;48.57;100491.69;103946;1285;297820;-84
2023/08/25 03:41:45;;;;;;;8.90;7.10;;;;;;;27.47;48.72;100496.95;104071;1289;69296;-85
2023/08/25 03:44:11;;;;;;;9.70;7.40;;;;;;;27.43;48.91;100497.04;104239;1285;69196;-84
2023/08/25 03:46:36;;;;;;;15.80;7.70;;;;;;;27.42;49.04;100502.40;104055;1286;72635;-84
2023/08/25 03:49:02;;;;;;;10.80;7.30;;;;;;;27.39;49.14;100504.85;103967;1286;69353;-85
2023/08/25 03:51:28;;;;;;;12.20;7.60;;;;;;;27.37;49.24;100505.70;104151;1286;69321;-86
2023/08/25 03:53:53;;;;;;;12.70;7.60;;;;;;;27.34;49.44;100507.58;104250;1291;69198;-84
2023/08/25 03:56:19;;;;;;;13.60;8.00;;;;;;;27.33;49.47;100506.84;104092;1285;69152;-85
2023/08/25 03:58:45;;;;;;;17.20;8.50;;;;;;;27.31;49.57;100516.23;104270;1285;69268;-85
2023/08/25 04:01:11;;;;;;;15.60;8.40;;;;;;;27.30;49.67;100522.08;104132;1291;69212;-84
2023/08/25 04:03:36;;;;;;;9.50;8.00;;;;;;;27.29;49.71;100526.10;104207;1291;69253;-85
2023/08/25 04:06:02;;;;;;;11.10;8.40;;;;;;;27.28;49.99;100534.59;104243;1288;69200;-85
2023/08/25 04:08:27;;;;;;;10.90;8.50;;;;;;;27.28;50.30;100537.64;104216;1284;69189;-85
2023/08/25 04:10:52;;;;;;;16.40;8.50;;;;;;;27.27;50.26;100541.13;104332;1286;69205;-84
2023/08/25 04:13:18;;;;;;;14.70;9.20;;;;;;;27.25;50.47;100538.11;104117;1286;69230;-84
2023/08/25 04:15:44;;;;;;;11.90;8.50;;;;;;;27.24;50.59;100545.79;104216;1285;69433;-85
2023/08/25 04:18:10;;;;;;;14.80;9.40;;;;;;;27.23;50.73;100546.95;104232;1286;69214;-85
2023/08/25 04:20:35;;;;;;;14.80;8.80;;;;;;;27.22;50.88;100554.63;104307;1286;71165;-85
2023/08/25 04:23:04;;;;;;;15.60;9.40;;;;;;;27.21;51.06;100557.39;104081;1291;69163;-85
2023/08/25 04:25:29;;;;;;;15.40;9.40;;;;;;;27.20;51.12;100557.84;104114;1286;69225;-85
2023/08/25 04:27:56;;;;;;;12.90;9.90;;;;;;;27.18;51.13;100563.20;104061;1286;69262;-85
2023/08/25 04:30:27;;;;;;;12.60;9.70;;;;;;;27.16;51.50;100571.98;104079;1286;69235;-90
2023/08/25 04:32:53;;;;;;;12.50;9.10;;;;;;;27.14;51.54;100572.42;104210;1289;69087;-84
2023/08/25 04:35:19;;;;;;;11.30;8.10;;;;;;;27.16;51.75;100574.98;104331;1291;67245;-85
2023/08/25 04:37:47;;;;;;;12.30;7.60;;;;;;;27.20;51.88;100572.30;104141;1286;69346;-85
2023/08/25 04:40:22;;;;;;;11.00;7.70;;;;;;;27.23;51.98;100572.57;104291;1286;69167;-85
2023/08/25 04:42:47;;;;;;;10.00;8.60;;;;;;;27.29;51.96;100568.46;104314;1285;69214;-85
2023/08/25 04:47:46;;;;;;;13.50;8.90;;;;;;;27.37;51.25;100566.50;104906;1287;69144;-85
2023/08/25 04:50:11;;;;;;;15.00;9.70;;;;;;;27.38;51.25;100566.89;104489;1286;69208;-84
2023/08/25 04:52:37;;;;;;;21.20;9.60;;;;;;;27.36;51.31;100567.25;104475;1283;69253;-85
2023/08/25 04:55:03;;;;;;;14.20;9.70;;;;;;;27.34;51.33;100569.05;105138;1285;69244;-84
2023/08/25 04:57:28;;;;;;;12.40;9.20;;;;;;;27.31;51.45;100569.52;104793;1286;69195;-84
2023/08/25 04:59:54;;;;;;;15.90;9.50;;;;;;;27.30;51.38;100569.36;104500;1283;69208;-83
2023/08/25 05:02:20;;;;;;;12.60;10.10;;;;;;;27.29;51.42;100579.10;104622;1286;69231;-84
2023/08/25 05:04:45;;;;;;;16.00;9.40;;;;;;;27.27;51.41;100583.59;104607;1283;69244;-84
2023/08/25 05:07:11;;;;;;;14.90;9.30;;;;;;;27.24;51.30;100588.92;104380;1288;69322;-84
2023/08/25 05:09:36;;;;;;;12.60;9.50;;;;;;;27.21;50.99;100592.40;104605;1288;69205;-84
2023/08/25 05:12:02;;;;;;;17.70;9.90;;;;;;;27.21;51.00;100598.19;104390;1287;69445;-84
2023/08/25 05:14:27;;;;;;;13.30;9.00;;;;;;;27.22;51.01;100598.95;104265;1285;69207;-84
2023/08/25 05:16:52;;;;;;;13.90;8.90;;;;;;;27.22;50.99;100607.00;104543;1285;69417;-84
2023/08/25 05:19:18;;;;;;;18.40;9.80;;;;;;;27.23;50.94;100610.59;104627;1287;69195;-84
2023/08/25 05:21:44;;;;;;;12.60;9.30;;;;;;;27.24;50.99;100614.35;104617;1283;73497;-84
2023/08/25 05:24:20;;;;;;;15.40;9.60;;;;;;;27.23;50.91;100615.18;104329;1283;69195;-90
2023/08/25 05:26:51;;;;;;;15.40;9.70;;;;;;;27.23;50.93;100611.73;104376;1285;69154;-84
2023/08/25 05:29:24;;;;;;;13.70;9.70;;;;;;;27.22;50.93;100610.91;104707;1287;69323;-84
2023/08/25 05:31:49;;;;;;;16.60;10.60;;;;;;;27.20;50.87;100606.89;104468;1283;69030;-85
2023/08/25 05:34:15;;;;;;;16.60;10.70;;;;;;;27.17;50.98;100605.31;104645;1288;69265;-84
2023/08/25 05:36:40;;;;;;;16.60;10.80;;;;;;;27.14;50.93;100604.45;104506;1289;69222;-85
2023/08/25 05:41:46;;;;;;;13.10;9.70;;;;;;;27.10;50.93;100599.94;104315;1287;69256;-84
2023/08/25 05:44:11;;;;;;;11.80;9.60;;;;;;;27.12;51.14;100596.59;104357;1287;67610;-84
2023/08/25 05:46:39;;;;;;;17.80;9.60;;;;;;;27.13;51.09;100594.44;104049;1288;69338;-85
2023/08/25 05:49:04;;;;;;;14.80;10.30;;;;;;;27.15;51.02;100596.88;103931;1288;69242;-86
2023/08/25 05:51:30;;;;;;;13.90;9.80;;;;;;;27.17;51.05;100599.07;104087;1289;70001;-86
2023/08/25 05:53:55;;;;;;;14.40;8.90;;;;;;;27.18;50.89;100600.55;104226;1286;69194;-85
2023/08/25 05:56:21;;;;;;;15.50;7.70;;;;;;;27.18;50.97;100597.30;104196;1291;74616;-86
2023/08/25 05:58:46;;;;;;;14.10;7.90;;;;;;;27.20;50.80;100594.47;104668;1287;70531;-84
2023/08/25 06:01:12;;;;;;;12.20;7.10;;;;;;;27.20;50.64;100592.36;104485;1288;69164;-85
2023/08/25 06:03:38;;;;;;;14.00;7.00;;;;;;;27.21;50.37;100585.65;104344;1286;69302;-85
2023/08/25 06:06:14;;;;;;;9.50;7.10;;;;;;;27.20;49.99;100584.44;104207;1288;69102;-90
2023/08/25 06:08:40;;;;;;;11.30;7.40;;;;;;;27.20;49.86;100583.45;104179;1287;69148;-85
2023/08/25 06:11:07;;;;;;;13.90;7.70;;;;;;;27.21;49.70;100586.63;104280;1287;69211;-85
2023/08/25 06:13:33;;;;;;;10.60;7.20;;;;;;;27.21;49.43;100587.13;104296;1288;67373;-85
2023/08/25 06:15:59;;;;;;;12.40;7.00;;;;;;;27.21;49.28;100583.37;104334;1290;69117;-85
2023/08/25 06:18:24;;;;;;;11.90;7.10;;;;;;;27.21;49.10;100578.00;104343;1288;69272;-85
2023/08/25 06:20:50;;;;;;;11.70;6.30;;;;;;;27.22;48.78;100571.61;104181;1288;69250;-85
2023/08/25 06:23:16;;;;;;;10.00;6.70;;;;;;;27.24;48.67;100568.82;104423;1287;69190;-86
2023/08/25 06:25:43;;;;;;;8.60;6.90;;;;;;;27.27;48.54;100571.23;104287;1288;69205;-86
2023/08/25 06:28:09;;;;;;;13.20;8.00;;;;;;;27.29;48.47;100580.80;104141;1289;74609;-86
2023/08/25 06:30:35;;;;;;;19.00;11.70;;;;;;;27.30;48.27;100587.19;104323;1289;69283;-86
2023/08/25 06:33:03;;;;;;;14.60;11.20;;;;;;;27.32;48.21;100593.44;104254;1288;69341;-92
2023/08/25 06:35:29;;;;;;;22.70;16.70;;;;;;;27.33;48.16;100590.41;104216;1287;69095;-86
2023/08/25 06:37:55;;;;;;;16.10;13.00;;;;;;;27.33;48.01;100591.59;104580;1290;69282;-86
2023/08/25 06:40:20;;;;;;;18.40;11.90;;;;;;;27.34;47.82;100594.78;104331;1288;69164;-86
2023/08/25 06:42:45;;;;;;;14.60;11.60;;;;;;;27.34;47.54;100596.11;104341;1287;69187;-84
2023/08/25 06:45:11;;;;;;;14.60;11.10;;;;;;;27.33;47.62;100603.11;104316;1288;69281;-84
2023/08/25 06:47:38;;;;;;;14.80;9.80;;;;;;;27.34;47.43;100603.20;104072;1293;70530;-84
2023/08/25 06:50:05;;;;;;;13.70;8.70;;;;;;;27.35;47.34;100608.70;104539;1288;69061;-84
2023/08/25 06:52:31;;;;;;;15.00;8.90;;;;;;;27.36;47.25;100605.11;104286;1285;69014;-84
2023/08/25 06:54:57;;;;;;;14.90;8.70;;;;;;;27.38;47.15;100603.73;104406;1287;69903;-84
2023/08/25 06:57:23;;;;;;;16.80;8.70;;;;;;;27.38;47.11;100600.78;104296;1288;69304;-84
2023/08/25 07:02:22;;;;;;;12.20;7.80;;;;;;;27.40;46.92;100600.15;104526;1290;72633;-85
2023/08/25 07:04:48;;;;;;;9.30;6.90;;;;;;;27.42;46.91;100595.61;104470;1286;69506;-86
2023/08/25 07:07:13;;;;;;;10.00;7.10;;;;;;;27.43;46.92;100598.13;104541;1286;69253;-86
2023/08/25 07:09:39;;;;;;;10.30;7.10;;;;;;;27.44;46.69;100603.66;104476;1284;69285;-86
2023/08/25 07:12:04;;;;;;;9.60;7.20;;;;;;;27.47;46.69;100606.01;104625;1285;69390;-86
2023/08/25 07:14:31;;;;;;;9.80;6.90;;;;;;;27.48;46.58;100608.35;104442;1286;70412;-86
2023/08/25 07:16:57;;;;;;;9.70;6.80;;;;;;;27.50;46.64;100607.79;104365;1291;69196;-86
2023/08/25 07:19:23;;;;;;;13.10;6.50;;;;;;;27.51;46.62;100605.79;104350;1285;70499;-86
2023/08/25 07:21:48;;;;;;;9.30;6.90;;;;;;;27.53;46.48;100609.33;104590;1288;69212;-86
2023/08/25 07:24:14;;;;;;;7.60;6.80;;;;;;;27.53;46.24;100607.10;104483;1286;69215;-86
2023/08/25 07:29:13;;;;;;;10.40;6.50;;;;;;;27.54;46.05;100612.30;104565;1284;67907;-85
2023/08/25 07:31:39;;;;;;;9.70;7.10;;;;;;;27.54;45.93;100605.48;104285;1288;69282;-85
2023/08/25 07:34:04;;;;;;;11.70;7.20;;;;;;;27.55;45.81;100604.42;104527;1285;69319;-86
2023/08/25 07:36:30;;;;;;;13.60;6.30;;;;;;;27.55;45.76;100608.75;104436;1288;69239;-86
2023/08/25 07:38:55;;;;;;;9.40;6.80;;;;;;;27.56;45.61;100605.31;104550;1284;69195;-86
2023/08/25 07:41:22;;;;;;;10.90;6.70;;;;;;;27.57;45.56;100604.41;104165;1285;70303;-85
2023/08/25 07:43:48;;;;;;;9.90;7.80;;;;;;;27.59;45.40;100601.84;104507;1285;74640;-86
2023/08/25 07:46:14;;;;;;;15.30;13.00;;;;;;;27.58;45.28;100597.70;104364;1286;69195;-85
2023/08/25 07:48:39;;;;;;;17.10;14.40;;;;;;;27.59;45.10;100592.48;104342;1288;69222;-86
2023/08/25 07:51:08;;;;;;;14.80;12.40;;;;;;;27.60;44.83;100594.15;104442;1285;69194;-85
2023/08/25 07:56:07;;;;;;;10.60;8.30;;;;;;;27.61;44.80;100592.95;104337;1289;72919;-85
2023/08/25 07:58:33;;;;;;;11.80;8.70;;;;;;;27.63;44.82;100593.42;104143;1288;69202;-85
2023/08/25 08:00:58;;;;;;;10.00;8.40;;;;;;;27.64;44.70;100595.29;104100;1289;70344;-85
2023/08/25 08:03:24;;;;;;;15.70;8.10;;;;;;;27.65;44.56;100589.67;104083;1286;69336;-85
2023/08/25 08:05:49;;;;;;;13.70;8.20;;;;;;;27.66;44.51;100589.81;104270;1287;69458;-86
2023/08/25 08:08:15;;;;;;;12.10;7.00;;;;;;;27.66;44.53;100587.99;103962;1290;69192;-85
2023/08/25 08:10:40;;;;;;;11.80;7.10;;;;;;;27.67;44.41;100586.08;104251;1286;69234;-84
2023/08/25 08:13:06;;;;;;;11.40;6.90;;;;;;;27.69;44.39;100584.21;104192;1286;69288;-85
2023/08/25 08:15:31;;;;;;;13.40;7.60;;;;;;;27.70;44.33;100583.08;104194;1285;69294;-85
2023/08/25 08:17:58;;;;;;;9.70;7.50;;;;;;;27.71;44.29;100581.20;104156;1285;69202;-85
2023/08/25 08:20:24;;;;;;;12.40;7.90;;;;;;;27.72;44.32;100579.04;104182;1286;69077;-85
2023/08/25 08:22:50;;;;;;;15.70;8.40;;;;;;;27.73;44.25;100575.75;103864;1292;69221;-85
2023/08/25 08:25:16;;;;;;;12.20;7.60;;;;;;;27.76;44.18;100576.42;104204;1285;69330;-85
2023/08/25 08:27:41;;;;;;;12.60;7.00;;;;;;;27.78;44.08;100574.30;104124;1288;69268;-85
2023/08/25 08:30:08;;;;;;;12.30;7.20;;;;;;;27.80;44.14;100569.80;104180;1286;69265;-85
2023/08/25 08:32:38;;;;;;;10.60;7.70;;;;;;;27.81;44.16;100569.77;104116;1286;69279;-85
2023/08/25 08:35:07;;;;;;;13.10;7.20;;;;;;;27.82;44.11;100573.56;104197;1289;69199;-85
2023/08/25 08:37:33;;;;;;;13.10;7.00;;;;;;;27.82;44.04;100572.69;104122;1285;69132;-85
2023/08/25 08:40:00;;;;;;;11.40;7.10;;;;;;;27.83;44.00;100567.85;104223;1288;69169;-85
2023/08/25 08:42:26;;;;;;;12.90;8.30;;;;;;;27.85;43.94;100570.44;104247;1288;69240;-85
2023/08/25 08:44:51;;;;;;;15.80;12.60;;;;;;;27.86;43.99;100567.27;104175;1285;69281;-85
2023/08/25 08:47:18;;;;;;;15.30;10.70;;;;;;;27.86;43.80;100567.00;104057;1285;69198;-85
2023/08/25 08:49:44;;;;;;;12.90;9.40;;;;;;;27.86;43.62;100563.05;104204;1285;69285;-85
2023/08/25 08:52:09;;;;;;;14.00;9.20;;;;;;;27.87;43.65;100567.13;104146;1286;69286;-85
2023/08/25 08:54:36;;;;;;;15.70;9.40;;;;;;;27.88;43.50;100563.08;104260;1287;69265;-85
2023/08/25 08:57:03;;;;;;;10.70;8.40;;;;;;;27.89;43.47;100563.77;104195;1288;69248;-85
2023/08/25 08:59:30;;;;;;;9.00;7.60;;;;;;;27.90;43.47;100564.00;103888;1285;69099;-91
2023/08/25 09:01:57;;;;;;;11.80;8.60;;;;;;;27.90;43.48;100561.77;104007;1288;69238;-85
2023/08/25 09:04:22;;;;;;;12.60;7.90;;;;;;;27.91;43.28;100564.50;103964;1290;69499;-85
2023/08/25 09:06:51;;;;;;;12.90;7.10;;;;;;;27.91;43.18;100557.04;103914;1289;67049;-85
2023/08/25 09:09:19;;;;;;;10.00;7.40;;;;;;;27.92;43.20;100554.48;104152;1285;69209;-85
2023/08/25 09:11:48;;;;;;;10.40;6.70;;;;;;;27.93;43.23;100554.72;104259;1285;69125;-85
2023/08/25 09:16:48;;;;;;;9.20;7.10;;;;;;;27.96;43.18;100541.53;104461;1288;69191;-85
2023/08/25 09:19:16;;;;;;;8.80;7.10;;;;;;;27.98;43.05;100536.77;104927;1286;67754;-85
2023/08/25 09:21:45;;;;;;;12.40;7.10;;;;;;;27.99;43.12;100535.30;105012;1286;69172;-85
2023/08/25 09:24:11;;;;;;;13.60;7.50;;;;;;;28.01;43.10;100535.77;104331;1285;69077;-85
2023/08/25 09:26:37;;;;;;;13.30;8.80;;;;;;;28.03;42.97;100535.78;104039;1289;69362;-86
2023/08/25 09:29:03;;;;;;;17.00;11.30;;;;;;;28.04;43.08;100535.48;104086;1285;69131;-85
2023/08/25 09:31:29;;;;;;;15.80;12.60;;;;;;;28.05;43.06;100531.77;104305;1286;69200;-85
2023/08/25 09:34:00;;;;;;;19.70;14.30;;;;;;;28.07;43.03;100529.76;104169;1294;69361;-85
2023/08/25 09:36:26;;;;;;;15.90;11.30;;;;;;;28.07;42.98;100525.40;104103;1294;69144;-85
2023/08/25 09:38:52;;;;;;;14.80;11.00;;;;;;;28.09;42.99;100526.13;103985;1286;69760;-85
2023/08/25 09:41:28;;;;;;;11.50;10.20;;;;;;;28.11;42.93;100524.02;104076;1292;69173;-91
2023/08/25 09:43:58;;;;;;;11.50;8.60;;;;;;;28.11;42.88;100519.56;104216;1294;69221;-85
2023/08/25 09:46:33;;;;;;;9.20;8.20;;;;;;;28.13;42.87;100517.34;104050;1292;69179;-85
2023/08/25 09:49:06;;;;;;;11.00;8.10;;;;;;;28.14;42.89;100514.96;104275;1290;69256;-85
2023/08/25 09:51:45;;;;;;;13.00;7.80;;;;;;;28.14;42.55;100517.84;104166;1291;73330;-85
2023/08/25 09:54:15;;;;;;;9.40;7.20;;;;;;;28.14;42.68;100515.04;104185;1289;68997;-85
2023/08/25 09:56:41;;;;;;;;;;;;;;;28.15;42.73;100516.98;104133;1286;69151;-86
2023/08/25 10:01:42;;;;;;;8.80;7.00;;;;;;;28.15;42.69;100512.08;104712;1287;69174;-86
2023/08/25 10:04:08;;;;;;;10.70;6.90;;;;;;;28.16;42.74;100509.20;104675;1286;73721;-86
2023/08/25 10:06:38;;;;;;;8.40;6.90;;;;;;;28.19;42.56;100503.77;104794;1285;69131;-86
2023/08/25 10:09:04;;;;;;;9.70;7.10;;;;;;;28.21;42.56;100501.89;104577;1285;69215;-86
2023/08/25 10:11:33;;;;;;;9.90;6.80;;;;;;;28.24;42.64;100496.70;104599;1283;69491;-86
2023/08/25 10:14:00;;;;;;;14.20;6.90;;;;;;;28.26;42.59;100492.65;104462;1288;69109;-86
2023/08/25 10:16:28;;;;;;;9.90;6.80;;;;;;;28.28;42.71;100487.46;104347;1286;69202;-86
2023/08/25 10:18:58;;;;;;;10.40;7.30;;;;;;;28.29;42.51;100482.45;104633;1284;69121;-86
2023/08/25 10:21:24;;;;;;;11.80;7.50;;;;;;;28.31;42.62;100484.02;104868;1288;69694;-86
2023/08/25 10:23:51;;;;;;;13.00;7.20;;;;;;;28.33;42.63;100485.36;104722;1283;69231;-86
2023/08/25 10:26:17;;;;;;;9.20;6.80;;;;;;;28.36;42.68;100486.08;104376;1283;74331;-85
2023/08/25 10:28:43;;;;;;;10.00;6.70;;;;;;;28.39;42.55;100485.90;104284;1292;69250;-85
2023/08/25 10:31:09;;;;;;;9.50;6.80;;;;;;;28.41;42.45;100484.84;104381;1283;69292;-85
2023/08/25 10:33:48;;;;;;;9.10;6.90;;;;;;;28.44;42.36;100483.14;104293;1290;69247;-84
2023/08/25 10:36:15;;;;;;;10.30;7.00;;;;;;;28.46;42.54;100484.60;104615;1283;69285;-85
2023/08/25 10:38:41;;;;;;;9.40;7.00;;;;;;;28.49;42.58;100479.90;104528;1285;69097;-85
2023/08/25 10:41:14;;;;;;;8.90;6.50;;;;;;;28.50;42.39;100476.33;104278;1288;69183;-90
2023/08/25 10:43:40;;;;;;;10.70;7.10;;;;;;;28.52;42.40;100474.89;104228;1289;69231;-84
2023/08/25 10:46:09;;;;;;;11.30;7.50;;;;;;;28.54;42.30;100475.49;104379;1288;69244;-84
2023/08/25 10:48:34;;;;;;;8.90;6.70;;;;;;;28.56;42.27;100473.15;104402;1289;70333;-85
2023/08/25 10:51:11;;;;;;;18.90;8.20;;;;;;;28.57;42.32;100471.67;105220;1283;69237;-85
2023/08/25 10:53:44;;;;;;;23.70;9.70;;;;;;;28.59;42.37;100467.89;104372;1283;74309;-85
2023/08/25 10:56:20;;;;;;;22.20;9.90;;;;;;;28.60;42.11;100470.88;104491;1288;69144;-85
2023/08/25 10:59:09;;;;;;;21.40;9.70;;;;;;;28.62;42.05;100472.33;104631;1283;69261;-84
2023/08/25 11:01:42;;;;;;;15.40;8.10;;;;;;;28.65;41.91;100470.27;104420;1289;69172;-84
2023/08/25 11:04:12;;;;;;;9.20;7.70;;;;;;;28.67;41.84;100471.75;104500;1287;69160;-85
2023/08/25 11:06:42;;;;;;;14.90;8.60;;;;;;;28.69;41.81;100473.80;104451;1283;74281;-84
2023/08/25 11:09:09;;;;;;;22.10;9.20;;;;;;;28.71;41.95;100468.98;104317;1283;69778;-84
2023/08/25 11:11:36;;;;;;;18.10;8.80;;;;;;;28.72;42.08;100466.90;104188;1289;69163;-84
2023/08/25 11:14:03;;;;;;;14.70;8.70;;;;;;;28.72;42.16;100464.09;104426;1283;69159;-90
2023/08/25 11:16:28;;;;;;;23.50;9.00;;;;;;;28.72;42.09;100464.98;104514;1287;69128;-84
2023/08/25 11:18:54;;;;;;;15.70;8.30;;;;;;;28.73;42.34;100466.15;104458;1286;69239;-84
2023/08/25 11:21:24;;;;;;;15.40;8.50;;;;;;;28.74;42.22;100463.53;104389;1285;69173;-84
2023/08/25 11:23:49;;;;;;;18.80;9.00;;;;;;;28.73;42.31;100460.62;104509;1287;69146;-85
2023/08/25 11:26:16;;;;;;;17.80;9.60;;;;;;;28.73;42.42;100459.50;104269;1289;69268;-85
2023/08/25 11:28:41;;;;;;;16.70;8.70;;;;;;;28.73;42.35;100456.63;104377;1288;69778;-84
2023/08/25 11:31:07;;;;;;;13.30;8.70;;;;;;;28.73;42.41;100456.71;104182;1283;69090;-84
2023/08/25 11:33:33;;;;;;;14.90;8.10;;;;;;;28.73;42.41;100450.55;104423;1283;70256;-84